KCDW/CDW METAR and TAF weather

Enter ICAO airport designator
Station Type Date Time Source
KCDW METAR 2018/12/13 15:34 UTC NOAA

KCDW 131534Z 07005KT 2 1/2SM -SN OVC024 M01/M04 A3043 RMK AO2 P0000 T10111039


Station Type Date Time Source
KCDW Decoded METAR 2018/12/13 15:34 UTC NOAA

CALDWELL ESSEX COUNTY AIRPORT , NJ, United States (KCDW) 40-53N 074-17W 64M
Dec 13, 2018 - 10:34 AM EST / 2018.12.13 1534 UTC
Wind: from the ENE (070 degrees) at 6 MPH (5 KT):0
Visibility: 2 1/2 mile(s):0
Sky conditions: overcast
Weather: light snow
Precipitation last hour: A trace
Temperature: 30.0 F (-1.1 C)
Windchill: 23 F (-5 C):1
Dew Point: 25.0 F (-3.9 C)
Relative Humidity: 81%
Pressure (altimeter): 30.43 in. Hg (1030 hPa)
ob: KCDW 131534Z 07005KT 2 1/2SM -SN OVC024 M01/M04 A3043 RMK AO2 P0000 T10111039
cycle: 15

Station Type Date Time Source
KCDW TAF UTC NOAA

Error!


Example: see airport list